Time;durP1;ratioP1;P1;durP2;ratioP2;P2;SDS_P1;SDS_P2;PMS_P1;PMS_P2;Temp;Humidity;BMP_temperature;BMP_pressure;BME280_temperature;BME280_humidity;BME280_pressure;Samples;Min_cycle;Max_cycle;Signal;HPM_P1;HPM_P2
2022/12/04 00:02:43;;;;;;;31.50;13.13;;;;;;;;;;8266184;28;20043;-82
2022/12/04 00:06:46;;;;;;;34.90;13.38;;;;;;;;;;8265720;28;20044;-85
2022/12/04 00:10:49;;;;;;;26.63;11.05;;;;;;;;;;8258064;28;20046;-83
2022/12/04 00:14:51;;;;;;;29.83;11.68;;;;;;;;;;8266020;28;20042;-87
2022/12/04 00:18:56;;;;;;;21.25;9.50;;;;;;;;;;8265909;28;20049;-89
2022/12/04 00:22:58;;;;;;;26.85;11.70;;;;;;;;;;8247989;28;20073;-87
2022/12/04 00:27:04;;;;;;;26.00;12.55;;;;;;;;;;8266574;28;20401;-86
2022/12/04 00:31:08;;;;;;;22.50;10.75;;;;;;;;;;8265359;28;20062;-87
2022/12/04 00:35:12;;;;;;;25.42;11.52;;;;;;;;;;8266132;28;20105;-83
2022/12/04 00:39:15;;;;;;;28.77;10.38;;;;;;;;;;8265114;28;20478;-87
2022/12/04 00:43:18;;;;;;;26.42;11.10;;;;;;;;;;8264376;28;20136;-86
2022/12/04 00:47:20;;;;;;;31.48;12.20;;;;;;;;;;8264516;28;20046;-86
2022/12/04 00:51:25;;;;;;;27.95;11.43;;;;;;;;;;8253181;28;20512;-87
2022/12/04 00:55:28;;;;;;;10.93;5.53;;;;;;;;;;8264777;28;20050;-88
2022/12/04 00:59:31;;;;;;;22.02;8.60;;;;;;;;;;8265185;28;20066;-88
2022/12/04 01:03:34;;;;;;;22.05;9.07;;;;;;;;;;8265571;28;20066;-87
2022/12/04 01:07:38;;;;;;;26.80;10.45;;;;;;;;;;8264739;28;20096;-87
2022/12/04 01:11:41;;;;;;;29.75;12.35;;;;;;;;;;8264723;28;20057;-87
2022/12/04 01:15:44;;;;;;;18.33;8.18;;;;;;;;;;8264364;28;20047;-82
2022/12/04 01:19:46;;;;;;;26.95;10.43;;;;;;;;;;8264404;28;20076;-84
2022/12/04 01:23:50;;;;;;;31.73;11.25;;;;;;;;;;8257293;28;20093;-86
2022/12/04 01:27:53;;;;;;;23.00;9.55;;;;;;;;;;8263720;28;20050;-87
2022/12/04 01:31:56;;;;;;;24.40;10.63;;;;;;;;;;8264261;28;20121;-89
2022/12/04 01:36:00;;;;;;;23.70;10.45;;;;;;;;;;8263753;28;20053;-87
2022/12/04 01:40:05;;;;;;;29.13;12.15;;;;;;;;;;8263890;28;20053;-86
2022/12/04 01:44:10;;;;;;;24.92;10.68;;;;;;;;;;8263267;28;20104;-87
2022/12/04 01:48:24;;;;;;;26.08;11.15;;;;;;;;;;8264093;28;20050;-83
2022/12/04 01:52:27;;;;;;;27.35;11.65;;;;;;;;;;8264044;28;20474;-87
2022/12/04 01:56:36;;;;;;;30.38;12.07;;;;;;;;;;8264423;28;20043;-86
2022/12/04 02:00:39;;;;;;;9.85;4.28;;;;;;;;;;8264131;28;20248;-84
2022/12/04 02:04:43;;;;;;;27.77;9.63;;;;;;;;;;8264266;28;20073;-86
2022/12/04 02:08:46;;;;;;;19.35;8.10;;;;;;;;;;8263802;28;20108;-87
2022/12/04 02:12:59;;;;;;;14.30;5.45;;;;;;;;;;8246367;28;20054;-85
2022/12/04 02:17:10;;;;;;;24.17;9.20;;;;;;;;;;8250594;28;20125;-86
2022/12/04 02:21:20;;;;;;;22.17;9.80;;;;;;;;;;8256262;28;20147;-88
2022/12/04 02:25:31;;;;;;;18.92;8.48;;;;;;;;;;8260592;28;20083;-87
2022/12/04 02:29:40;;;;;;;23.95;9.73;;;;;;;;;;8253161;28;20093;-84
2022/12/04 02:33:46;;;;;;;26.08;11.05;;;;;;;;;;8256665;28;20050;-88
2022/12/04 02:37:53;;;;;;;25.42;10.48;;;;;;;;;;8254051;28;20046;-86
2022/12/04 02:41:59;;;;;;;21.33;9.38;;;;;;;;;;8252935;28;20082;-87
2022/12/04 02:46:09;;;;;;;26.30;9.55;;;;;;;;;;8261950;28;20061;-83
2022/12/04 02:50:20;;;;;;;17.35;7.93;;;;;;;;;;8263599;28;20043;-88
2022/12/04 02:54:30;;;;;;;26.38;10.05;;;;;;;;;;8256151;28;20520;-88
2022/12/04 02:58:36;;;;;;;24.52;9.82;;;;;;;;;;8254614;28;20050;-84
2022/12/04 03:02:46;;;;;;;22.83;9.32;;;;;;;;;;8268220;28;20410;-89
2022/12/04 03:06:54;;;;;;;24.73;9.52;;;;;;;;;;8268595;28;20050;-88
2022/12/04 03:11:00;;;;;;;17.98;8.07;;;;;;;;;;8264601;28;20499;-86
2022/12/04 03:15:06;;;;;;;18.65;7.97;;;;;;;;;;8268148;28;20049;-83
2022/12/04 03:19:15;;;;;;;22.00;8.30;;;;;;;;;;8268331;28;20061;-83
2022/12/04 03:23:23;;;;;;;16.15;7.07;;;;;;;;;;8268234;28;20473;-87
2022/12/04 03:27:34;;;;;;;19.00;9.00;;;;;;;;;;8267827;28;20073;-85
2022/12/04 03:31:43;;;;;;;19.50;8.40;;;;;;;;;;8202294;28;20499;-83
2022/12/04 03:35:52;;;;;;;21.23;8.13;;;;;;;;;;8202384;28;20046;-86
2022/12/04 03:40:00;;;;;;;22.80;9.82;;;;;;;;;;8200187;28;20054;-83
2022/12/04 03:44:10;;;;;;;25.02;10.15;;;;;;;;;;8189371;29;20058;-88
2022/12/04 03:48:21;;;;;;;19.63;8.82;;;;;;;;;;8196132;29;20090;-87
2022/12/04 03:52:29;;;;;;;16.98;7.65;;;;;;;;;;8199092;29;20055;-88
2022/12/04 03:56:36;;;;;;;9.70;4.60;;;;;;;;;;8199295;28;20035;-87
2022/12/04 04:00:42;;;;;;;14.50;6.90;;;;;;;;;;8198419;29;20471;-88
2022/12/04 04:04:49;;;;;;;23.23;9.05;;;;;;;;;;8194250;29;20118;-88
2022/12/04 04:08:59;;;;;;;15.88;8.45;;;;;;;;;;8198021;28;20062;-85
2022/12/04 04:26:13;;;;;;;17.23;7.43;;;;;;;;;;8202118;29;20498;-85
2022/12/04 04:30:16;;;;;;;20.15;8.13;;;;;;;;;;8232634;28;20518;-86
2022/12/04 04:34:24;;;;;;;24.17;10.00;;;;;;;;;;8265702;28;20062;-86
2022/12/04 04:38:32;;;;;;;24.05;9.88;;;;;;;;;;8265398;28;20046;-85
2022/12/04 04:42:43;;;;;;;15.95;6.40;;;;;;;;;;8264770;28;20038;-86
2022/12/04 04:46:51;;;;;;;17.23;7.97;;;;;;;;;;8265136;28;20116;-84
2022/12/04 04:50:54;;;;;;;22.10;7.97;;;;;;;;;;8264559;28;20053;-87
2022/12/04 04:54:58;;;;;;;23.15;9.68;;;;;;;;;;8265297;28;20042;-87
2022/12/04 04:59:02;;;;;;;20.35;9.55;;;;;;;;;;8265139;28;20483;-87
2022/12/04 05:03:05;;;;;;;19.08;8.90;;;;;;;;;;8264714;28;20065;-88
2022/12/04 05:07:08;;;;;;;24.15;10.48;;;;;;;;;;8264784;28;20057;-86
2022/12/04 05:11:13;;;;;;;18.20;7.10;;;;;;;;;;8264281;28;20125;-88
2022/12/04 05:15:17;;;;;;;28.75;11.02;;;;;;;;;;8264320;28;20050;-89
2022/12/04 05:23:40;;;;;;;26.88;10.15;;;;;;;;;;8264033;28;20125;-88
2022/12/04 05:27:42;;;;;;;30.13;13.32;;;;;;;;;;8264153;28;20077;-83
2022/12/04 05:31:46;;;;;;;22.10;8.95;;;;;;;;;;8264366;28;20474;-85
2022/12/04 05:35:57;;;;;;;14.75;6.70;;;;;;;;;;8263848;28;20092;-87
2022/12/04 05:39:59;;;;;;;28.65;10.23;;;;;;;;;;8264266;28;20052;-87
2022/12/04 05:44:02;;;;;;;24.63;11.23;;;;;;;;;;8260476;28;20433;-85
2022/12/04 05:48:06;;;;;;;23.00;9.90;;;;;;;;;;8256580;28;20046;-85
2022/12/04 05:52:09;;;;;;;22.55;9.88;;;;;;;;;;8264024;28;20105;-82
2022/12/04 05:56:12;;;;;;;32.15;12.10;;;;;;;;;;8264154;28;20046;-83
2022/12/04 06:00:16;;;;;;;26.15;10.07;;;;;;;;;;8263953;28;20046;-86
2022/12/04 06:04:21;;;;;;;29.15;12.18;;;;;;;;;;8262640;28;20466;-86
2022/12/04 06:08:24;;;;;;;22.85;11.68;;;;;;;;;;8238830;28;20580;-89
2022/12/04 06:12:26;;;;;;;23.38;8.82;;;;;;;;;;8242518;28;20062;-87
2022/12/04 06:16:31;;;;;;;24.98;12.40;;;;;;;;;;8249332;28;20047;-88
2022/12/04 06:20:36;;;;;;;22.17;9.73;;;;;;;;;;8239710;28;20099;-83
2022/12/04 06:24:39;;;;;;;24.10;10.27;;;;;;;;;;8268978;28;20058;-86
2022/12/04 06:28:42;;;;;;;23.00;11.05;;;;;;;;;;8269329;28;20054;-88
2022/12/04 06:32:45;;;;;;;19.92;9.52;;;;;;;;;;8268907;28;20400;-86
2022/12/04 06:36:49;;;;;;;23.42;9.93;;;;;;;;;;8256874;28;20509;-86
2022/12/04 06:40:51;;;;;;;21.27;9.80;;;;;;;;;;8268673;28;20154;-86
2022/12/04 06:44:54;;;;;;;35.30;11.07;;;;;;;;;;8267704;28;20135;-87
2022/12/04 06:48:58;;;;;;;20.80;9.60;;;;;;;;;;8250611;28;20474;-87
2022/12/04 06:53:02;;;;;;;26.73;13.93;;;;;;;;;;8259239;28;20046;-83
2022/12/04 06:57:05;;;;;;;22.05;11.25;;;;;;;;;;8265559;28;20050;-87
2022/12/04 07:01:10;;;;;;;15.10;6.57;;;;;;;;;;8255502;28;20053;-85
2022/12/04 07:05:12;;;;;;;18.00;9.35;;;;;;;;;;8267522;28;20478;-86
2022/12/04 07:09:18;;;;;;;20.85;9.95;;;;;;;;;;8267401;28;20046;-87
2022/12/04 07:13:20;;;;;;;22.05;8.48;;;;;;;;;;8267411;28;20077;-82
2022/12/04 07:17:23;;;;;;;23.50;9.75;;;;;;;;;;8268565;28;20056;-88
2022/12/04 07:21:28;;;;;;;25.27;10.25;;;;;;;;;;8258448;28;20057;-87
2022/12/04 07:25:32;;;;;;;21.33;10.05;;;;;;;;;;8256699;28;20054;-87
2022/12/04 07:29:38;;;;;;;25.52;10.43;;;;;;;;;;8235798;28;20558;-88
2022/12/04 07:33:41;;;;;;;17.85;8.45;;;;;;;;;;8244239;28;20600;-85
2022/12/04 07:37:47;;;;;;;23.80;11.25;;;;;;;;;;8242755;28;20054;-90
2022/12/04 07:41:52;;;;;;;22.85;8.82;;;;;;;;;;8253175;28;20125;-87
2022/12/04 07:45:58;;;;;;;36.70;16.00;;;;;;;;;;8236754;28;20454;-87
2022/12/04 07:50:02;;;;;;;25.60;11.68;;;;;;;;;;8240831;28;20053;-88
2022/12/04 07:54:05;;;;;;;18.83;9.98;;;;;;;;;;8248614;28;21072;-88
2022/12/04 07:58:09;;;;;;;14.88;6.82;;;;;;;;;;8250683;28;20078;-88
2022/12/04 08:02:13;;;;;;;18.55;8.63;;;;;;;;;;8264283;28;20052;-87
2022/12/04 08:06:16;;;;;;;19.92;7.93;;;;;;;;;;8266495;28;20051;-84
2022/12/04 08:10:19;;;;;;;42.65;18.33;;;;;;;;;;8261704;28;20078;-84
2022/12/04 08:14:23;;;;;;;26.80;12.43;;;;;;;;;;8247438;28;20043;-88
2022/12/04 08:18:27;;;;;;;14.73;7.22;;;;;;;;;;8259314;28;20042;-83
2022/12/04 08:22:29;;;;;;;23.90;10.73;;;;;;;;;;8265262;28;20353;-88
2022/12/04 08:26:33;;;;;;;51.42;25.15;;;;;;;;;;8257205;28;20122;-88
2022/12/04 08:30:37;;;;;;;30.48;13.27;;;;;;;;;;8256647;28;20054;-88
2022/12/04 08:34:40;;;;;;;42.88;14.50;;;;;;;;;;8258074;28;20058;-84
2022/12/04 08:38:54;;;;;;;35.22;12.77;;;;;;;;;;8256304;28;20042;-87
2022/12/04 08:43:03;;;;;;;31.35;14.65;;;;;;;;;;8251752;28;20096;-91
2022/12/04 08:47:08;;;;;;;26.48;11.02;;;;;;;;;;8258874;28;20057;-84
2022/12/04 08:51:15;;;;;;;56.50;17.27;;;;;;;;;;8235268;28;20070;-91
2022/12/04 08:55:19;;;;;;;25.48;12.40;;;;;;;;;;8259656;28;20802;-90
2022/12/04 08:59:24;;;;;;;10.65;5.70;;;;;;;;;;8248416;28;20524;-88
2022/12/04 09:03:37;;;;;;;23.30;11.90;;;;;;;;;;8229887;28;20049;-90
2022/12/04 09:07:43;;;;;;;25.23;11.50;;;;;;;;;;8237227;28;20450;-89
2022/12/04 09:11:50;;;;;;;24.27;11.35;;;;;;;;;;8256859;28;20046;-90
2022/12/04 09:15:54;;;;;;;26.95;11.55;;;;;;;;;;8238256;28;20049;-90
2022/12/04 09:20:02;;;;;;;24.75;11.65;;;;;;;;;;8239080;28;20113;-88
2022/12/04 09:24:07;;;;;;;62.70;31.05;;;;;;;;;;8253231;28;20042;-88
2022/12/04 09:28:21;;;;;;;32.28;15.27;;;;;;;;;;8242919;28;20481;-88
2022/12/04 09:32:32;;;;;;;25.90;10.00;;;;;;;;;;8256875;28;20486;-87
2022/12/04 09:36:42;;;;;;;27.08;11.40;;;;;;;;;;8251121;28;20101;-88
2022/12/04 09:40:52;;;;;;;23.55;11.45;;;;;;;;;;8241949;28;20042;-87
2022/12/04 09:45:06;;;;;;;22.13;9.60;;;;;;;;;;8258561;28;20046;-86
2022/12/04 09:49:19;;;;;;;32.22;14.20;;;;;;;;;;8253294;28;20070;-89
2022/12/04 09:53:28;;;;;;;26.35;13.32;;;;;;;;;;8251487;28;20046;-87
2022/12/04 09:57:37;;;;;;;32.70;15.68;;;;;;;;;;8230153;28;20051;-89
2022/12/04 10:01:45;;;;;;;30.67;14.02;;;;;;;;;;8256010;28;20073;-88
2022/12/04 10:05:59;;;;;;;30.13;13.88;;;;;;;;;;8253713;28;20062;-86
2022/12/04 10:10:08;;;;;;;30.45;13.30;;;;;;;;;;8258572;28;20079;-88
2022/12/04 10:14:29;;;;;;;21.75;9.65;;;;;;;;;;8258807;28;20046;-86
2022/12/04 10:18:49;;;;;;;20.58;8.30;;;;;;;;;;8244394;28;20058;-89
2022/12/04 10:23:02;;;;;;;27.15;11.57;;;;;;;;;;8245024;28;20042;-89
2022/12/04 10:27:14;;;;;;;20.20;9.35;;;;;;;;;;8249078;28;20065;-87
2022/12/04 10:31:18;;;;;;;20.60;9.75;;;;;;;;;;8261849;28;20438;-88
2022/12/04 10:35:30;;;;;;;22.23;12.07;;;;;;;;;;8263786;28;20081;-89
2022/12/04 10:39:49;;;;;;;26.00;11.82;;;;;;;;;;8264915;28;20061;-84
2022/12/04 10:44:01;;;;;;;30.70;14.68;;;;;;;;;;8234975;28;20050;-87
2022/12/04 10:48:10;;;;;;;23.35;11.48;;;;;;;;;;8256208;28;20050;-88
2022/12/04 10:52:17;;;;;;;31.05;14.65;;;;;;;;;;8247878;28;20123;-91
2022/12/04 10:56:25;;;;;;;29.17;13.43;;;;;;;;;;8257665;28;20050;-90
2022/12/04 11:00:37;;;;;;;24.77;11.93;;;;;;;;;;8256704;28;20158;-89
2022/12/04 11:04:44;;;;;;;33.40;17.00;;;;;;;;;;8252098;28;20046;-92
2022/12/04 11:08:52;;;;;;;28.05;11.60;;;;;;;;;;8258896;28;20116;-93
2022/12/04 11:13:07;;;;;;;9.77;4.97;;;;;;;;;;8252637;28;20043;-93
2022/12/04 11:17:33;;;;;;;29.23;13.02;;;;;;;;;;8256938;28;20046;-94
2022/12/04 11:22:11;;;;;;;31.10;12.52;;;;;;;;;;8252649;28;20545;-93
2022/12/04 11:26:31;;;;;;;17.20;10.10;;;;;;;;;;8256000;28;20134;-92
2022/12/04 11:30:41;;;;;;;37.53;17.27;;;;;;;;;;8251739;28;20055;-91
2022/12/04 11:34:46;;;;;;;35.72;16.15;;;;;;;;;;8244860;28;20462;-89
2022/12/04 11:39:09;;;;;;;35.83;16.17;;;;;;;;;;8242212;28;20567;-89
2022/12/04 11:43:31;;;;;;;51.33;22.92;;;;;;;;;;8255520;28;20054;-90
2022/12/04 11:47:36;;;;;;;39.45;18.38;;;;;;;;;;8243844;28;20055;-91
2022/12/04 11:51:54;;;;;;;33.88;16.20;;;;;;;;;;8253072;28;20061;-86
2022/12/04 11:56:14;;;;;;;76.05;24.35;;;;;;;;;;8243078;28;20065;-88
2022/12/04 12:00:18;;;;;;;42.53;16.73;;;;;;;;;;8253771;28;20050;-86
2022/12/04 12:04:37;;;;;;;36.65;14.38;;;;;;;;;;8241942;28;20058;-86
2022/12/04 12:09:03;;;;;;;69.38;18.88;;;;;;;;;;8264219;28;20046;-89
2022/12/04 12:13:16;;;;;;;44.47;14.43;;;;;;;;;;8252001;28;20137;-88
2022/12/04 12:17:25;;;;;;;54.35;22.73;;;;;;;;;;8266440;28;20133;-86
2022/12/04 12:21:38;;;;;;;76.72;21.95;;;;;;;;;;8266739;28;20113;-85
2022/12/04 12:25:50;;;;;;;51.35;20.75;;;;;;;;;;8266658;28;20046;-87
2022/12/04 12:30:02;;;;;;;42.75;19.08;;;;;;;;;;8266077;28;20054;-88
2022/12/04 12:34:11;;;;;;;79.10;28.40;;;;;;;;;;8256557;28;20046;-87
2022/12/04 12:38:18;;;;;;;75.07;25.55;;;;;;;;;;8268434;28;20517;-90
2022/12/04 12:42:28;;;;;;;40.13;17.25;;;;;;;;;;8268501;28;20057;-87
2022/12/04 12:46:37;;;;;;;57.08;18.88;;;;;;;;;;8267351;28;20100;-89
2022/12/04 12:50:44;;;;;;;69.72;21.67;;;;;;;;;;8266398;28;20069;-86
2022/12/04 12:54:56;;;;;;;44.45;17.70;;;;;;;;;;8265024;28;20514;-89
2022/12/04 12:59:04;;;;;;;118.73;29.70;;;;;;;;;;8264836;28;20043;-87
2022/12/04 13:03:24;;;;;;;48.50;17.00;;;;;;;;;;8263896;28;20128;-87
2022/12/04 13:07:45;;;;;;;66.45;26.02;;;;;;;;;;8247511;28;20062;-82
2022/12/04 13:11:50;;;;;;;41.38;16.90;;;;;;;;;;8255312;28;20387;-85
2022/12/04 13:15:59;;;;;;;34.20;13.68;;;;;;;;;;8264467;28;20449;-90
2022/12/04 13:20:05;;;;;;;14.75;6.05;;;;;;;;;;8260933;28;20089;-87
2022/12/04 13:24:45;;;;;;;59.80;26.30;;;;;;;;;;8263789;28;20050;-88
2022/12/04 13:28:56;;;;;;;39.45;16.45;;;;;;;;;;8250813;28;20069;-86
2022/12/04 13:33:32;;;;;;;74.90;22.60;;;;;;;;;;8263593;28;20494;-89
2022/12/04 13:37:52;;;;;;;55.92;22.70;;;;;;;;;;8250151;28;20053;-87
2022/12/04 13:41:58;;;;;;;75.03;29.85;;;;;;;;;;8250138;28;20537;-88
2022/12/04 13:46:04;;;;;;;51.22;20.58;;;;;;;;;;8248639;28;20487;-89
2022/12/04 13:50:28;;;;;;;52.05;20.80;;;;;;;;;;8255582;28;20077;-90
2022/12/04 13:54:33;;;;;;;33.50;16.08;;;;;;;;;;8250131;28;20190;-90
2022/12/04 13:58:36;;;;;;;32.33;14.38;;;;;;;;;;8245049;28;20065;-87
2022/12/04 14:02:49;;;;;;;20.80;11.38;;;;;;;;;;8250866;28;20051;-89
2022/12/04 14:06:52;;;;;;;39.05;16.98;;;;;;;;;;8255775;28;20052;-88
2022/12/04 14:11:03;;;;;;;53.25;24.50;;;;;;;;;;8242074;28;20125;-86
2022/12/04 14:15:08;;;;;;;27.20;10.93;;;;;;;;;;8258324;28;20050;-88
2022/12/04 14:19:27;;;;;;;23.20;12.38;;;;;;;;;;8236326;28;20047;-87
2022/12/04 14:23:36;;;;;;;37.80;17.63;;;;;;;;;;8237998;28;20482;-87
2022/12/04 14:27:46;;;;;;;41.97;19.08;;;;;;;;;;8251897;28;20050;-88
2022/12/04 14:31:50;;;;;;;42.38;17.45;;;;;;;;;;8250350;28;20577;-89
2022/12/04 14:35:59;;;;;;;77.28;23.98;;;;;;;;;;8245213;28;20054;-86
2022/12/04 14:40:06;;;;;;;108.85;36.08;;;;;;;;;;8248066;28;20053;-86
2022/12/04 14:44:23;;;;;;;63.75;23.27;;;;;;;;;;8252296;28;20055;-87
2022/12/04 14:48:35;;;;;;;168.30;45.63;;;;;;;;;;8258044;28;20050;-87
2022/12/04 14:52:46;;;;;;;49.88;18.50;;;;;;;;;;8256240;28;20057;-86
2022/12/04 14:57:00;;;;;;;102.82;40.03;;;;;;;;;;8255072;28;20043;-85
2022/12/04 15:01:18;;;;;;;49.63;19.10;;;;;;;;;;8248853;28;20486;-87
2022/12/04 15:05:24;;;;;;;46.53;17.80;;;;;;;;;;8249058;28;20503;-85
2022/12/04 15:13:49;;;;;;;102.70;31.25;;;;;;;;;;8253467;28;20170;-89
2022/12/04 15:18:00;;;;;;;42.22;16.15;;;;;;;;;;8240889;28;20046;-84
2022/12/04 15:22:04;;;;;;;27.40;12.75;;;;;;;;;;8256874;28;20065;-88
2022/12/04 15:26:13;;;;;;;44.88;21.15;;;;;;;;;;8257664;28;20069;-85
2022/12/04 15:30:18;;;;;;;50.63;20.60;;;;;;;;;;8259535;28;20062;-87
2022/12/04 15:34:33;;;;;;;54.75;23.83;;;;;;;;;;8252138;28;20790;-88
2022/12/04 15:38:36;;;;;;;49.13;20.23;;;;;;;;;;8248608;28;20054;-87
2022/12/04 15:42:39;;;;;;;64.57;25.67;;;;;;;;;;8252030;28;20042;-88
2022/12/04 15:46:43;;;;;;;48.10;21.83;;;;;;;;;;8242825;28;20043;-86
2022/12/04 15:50:56;;;;;;;31.90;14.20;;;;;;;;;;8252934;28;20057;-84
2022/12/04 15:55:01;;;;;;;58.95;19.83;;;;;;;;;;8246393;28;20042;-88
2022/12/04 15:59:03;;;;;;;71.10;28.48;;;;;;;;;;8251969;28;20069;-88
2022/12/04 16:03:23;;;;;;;35.92;16.27;;;;;;;;;;8255730;28;20046;-87
2022/12/04 16:07:30;;;;;;;33.80;14.77;;;;;;;;;;8249763;28;20104;-86
2022/12/04 16:11:35;;;;;;;42.22;18.25;;;;;;;;;;8244315;28;20082;-87
2022/12/04 16:15:41;;;;;;;34.40;13.45;;;;;;;;;;8240472;28;20130;-86
2022/12/04 16:19:45;;;;;;;46.63;20.05;;;;;;;;;;8249835;28;20130;-87
2022/12/04 16:23:49;;;;;;;36.20;13.85;;;;;;;;;;8252786;28;20050;-87
2022/12/04 16:27:54;;;;;;;45.90;20.10;;;;;;;;;;8260586;28;20407;-85
2022/12/04 16:31:57;;;;;;;64.53;27.38;;;;;;;;;;8252297;28;20046;-87
2022/12/04 16:36:00;;;;;;;43.72;17.38;;;;;;;;;;8245442;28;20097;-88
2022/12/04 16:40:06;;;;;;;53.95;21.42;;;;;;;;;;8247164;28;20062;-87
2022/12/04 16:44:15;;;;;;;26.08;11.43;;;;;;;;;;8251360;28;20053;-88
2022/12/04 16:48:19;;;;;;;50.03;21.35;;;;;;;;;;8256741;28;20058;-88
2022/12/04 16:52:22;;;;;;;34.65;15.20;;;;;;;;;;8247094;28;20767;-87
2022/12/04 16:56:29;;;;;;;35.88;14.30;;;;;;;;;;8252686;28;20093;-84
2022/12/04 17:00:32;;;;;;;63.35;25.92;;;;;;;;;;8252037;28;20116;-88
2022/12/04 17:04:36;;;;;;;673.05;286.45;;;;;;;;;;8230003;28;20073;-88
2022/12/04 17:08:39;;;;;;;51.47;18.35;;;;;;;;;;8238458;28;20054;-88
2022/12/04 17:12:44;;;;;;;32.35;14.93;;;;;;;;;;8247254;28;20117;-87
2022/12/04 17:16:47;;;;;;;36.40;14.23;;;;;;;;;;8247676;28;20141;-87
2022/12/04 17:20:54;;;;;;;37.92;15.27;;;;;;;;;;8233698;28;20101;-87
2022/12/04 17:24:58;;;;;;;19.92;9.75;;;;;;;;;;8252071;28;20052;-85
2022/12/04 17:29:03;;;;;;;51.20;18.45;;;;;;;;;;8246605;28;20066;-84
2022/12/04 17:33:06;;;;;;;35.83;16.15;;;;;;;;;;8241306;28;20047;-82
2022/12/04 17:37:11;;;;;;;47.33;19.20;;;;;;;;;;8244191;28;20042;-87
2022/12/04 17:41:16;;;;;;;33.45;14.50;;;;;;;;;;8243432;28;20174;-85
2022/12/04 17:45:21;;;;;;;20.45;10.50;;;;;;;;;;8238894;28;20135;-89
2022/12/04 17:49:23;;;;;;;40.63;17.20;;;;;;;;;;8246941;28;20498;-87
2022/12/04 17:53:27;;;;;;;28.38;11.57;;;;;;;;;;8247346;28;20046;-88
2022/12/04 17:57:31;;;;;;;41.72;18.88;;;;;;;;;;8248729;28;20065;-87
2022/12/04 18:01:37;;;;;;;36.88;15.70;;;;;;;;;;8246573;28;20046;-83
2022/12/04 18:05:39;;;;;;;42.53;16.25;;;;;;;;;;8245038;28;20050;-88
2022/12/04 18:09:43;;;;;;;31.88;16.75;;;;;;;;;;8245275;28;20042;-89
2022/12/04 18:13:45;;;;;;;28.67;12.13;;;;;;;;;;8248378;28;20066;-86
2022/12/04 18:17:50;;;;;;;45.00;17.60;;;;;;;;;;8250943;28;20050;-88
2022/12/04 18:21:58;;;;;;;14.73;8.32;;;;;;;;;;8255169;28;20449;-87
2022/12/04 18:26:06;;;;;;;28.15;11.05;;;;;;;;;;8256197;28;20051;-85
2022/12/04 18:30:13;;;;;;;37.65;15.05;;;;;;;;;;8253707;28;20139;-90
2022/12/04 18:34:18;;;;;;;63.97;26.58;;;;;;;;;;8250901;28;20417;-88
2022/12/04 18:38:21;;;;;;;43.20;16.75;;;;;;;;;;8249671;28;20053;-86
2022/12/04 18:42:25;;;;;;;42.15;16.60;;;;;;;;;;8248249;28;20125;-86
2022/12/04 18:46:28;;;;;;;31.02;14.77;;;;;;;;;;8242091;28;20042;-89
2022/12/04 18:50:32;;;;;;;44.90;16.17;;;;;;;;;;8240524;28;20053;-87
2022/12/04 18:54:35;;;;;;;32.03;15.30;;;;;;;;;;8255071;28;20039;-88
2022/12/04 18:58:39;;;;;;;49.75;15.85;;;;;;;;;;8254847;28;20046;-84
2022/12/04 19:02:42;;;;;;;21.40;10.18;;;;;;;;;;8240665;28;20043;-88
2022/12/04 19:06:50;;;;;;;52.92;20.92;;;;;;;;;;8261579;28;20053;-85
2022/12/04 19:10:53;;;;;;;34.03;14.00;;;;;;;;;;8258901;28;20120;-86
2022/12/04 19:14:56;;;;;;;36.55;15.60;;;;;;;;;;8248005;28;20450;-87
2022/12/04 19:19:01;;;;;;;25.48;10.32;;;;;;;;;;8261686;28;20125;-85
2022/12/04 19:23:07;;;;;;;67.82;27.92;;;;;;;;;;8264853;28;20047;-86
2022/12/04 19:27:12;;;;;;;36.00;15.93;;;;;;;;;;8264083;28;20050;-86
2022/12/04 19:31:15;;;;;;;21.77;9.18;;;;;;;;;;8258073;28;20149;-89
2022/12/04 19:35:19;;;;;;;32.92;16.15;;;;;;;;;;8264097;28;20042;-88
2022/12/04 19:39:24;;;;;;;57.42;23.98;;;;;;;;;;8263131;28;20050;-84
2022/12/04 19:43:29;;;;;;;19.48;10.25;;;;;;;;;;8253559;28;20058;-87
2022/12/04 19:47:34;;;;;;;27.25;10.73;;;;;;;;;;8265870;28;20451;-84
2022/12/04 19:51:41;;;;;;;26.77;11.90;;;;;;;;;;8261558;28;20050;-85
2022/12/04 19:55:47;;;;;;;34.38;15.75;;;;;;;;;;8256207;28;20052;-86
2022/12/04 19:59:50;;;;;;;46.47;19.67;;;;;;;;;;8265476;28;20042;-88
2022/12/04 20:03:57;;;;;;;16.98;7.57;;;;;;;;;;8267585;28;20076;-91
2022/12/04 20:08:00;;;;;;;35.67;15.18;;;;;;;;;;8266886;28;20054;-90
2022/12/04 20:12:04;;;;;;;36.53;14.35;;;;;;;;;;8267006;28;20046;-90
2022/12/04 20:16:12;;;;;;;20.23;8.65;;;;;;;;;;8267132;28;20046;-89
2022/12/04 20:20:15;;;;;;;35.67;15.70;;;;;;;;;;8257653;28;20054;-89
2022/12/04 20:24:18;;;;;;;22.25;10.68;;;;;;;;;;8250156;28;20056;-88
2022/12/04 20:28:24;;;;;;;29.98;11.88;;;;;;;;;;8267401;28;20057;-91
2022/12/04 20:32:27;;;;;;;17.35;7.22;;;;;;;;;;8256221;28;20129;-87
2022/12/04 20:36:36;;;;;;;34.60;15.07;;;;;;;;;;8255013;28;20042;-91
2022/12/04 20:40:39;;;;;;;50.90;17.35;;;;;;;;;;8264030;28;20406;-91
2022/12/04 20:44:44;;;;;;;23.30;10.43;;;;;;;;;;8255033;28;20078;-89
2022/12/04 20:48:48;;;;;;;25.15;12.10;;;;;;;;;;8265322;28;20050;-86
2022/12/04 20:52:52;;;;;;;28.85;14.38;;;;;;;;;;8256222;28;20039;-91
2022/12/04 20:56:56;;;;;;;21.63;8.80;;;;;;;;;;8267087;28;20554;-89
2022/12/04 21:01:09;;;;;;;15.20;7.70;;;;;;;;;;8257180;28;20046;-91
2022/12/04 21:05:13;;;;;;;17.25;9.52;;;;;;;;;;8266549;28;20046;-89
2022/12/04 21:09:19;;;;;;;60.55;20.92;;;;;;;;;;8262733;28;20038;-90
2022/12/04 21:17:45;;;;;;;42.25;15.75;;;;;;;;;;8266096;28;20042;-91
2022/12/04 21:21:48;;;;;;;21.92;8.75;;;;;;;;;;8256932;28;20054;-92
2022/12/04 21:25:56;;;;;;;32.88;13.80;;;;;;;;;;8265939;28;20070;-89
2022/12/04 21:30:00;;;;;;;20.17;10.20;;;;;;;;;;8268270;28;20046;-90
2022/12/04 21:34:06;;;;;;;29.80;13.55;;;;;;;;;;8269050;28;20129;-85
2022/12/04 21:38:10;;;;;;;27.50;13.35;;;;;;;;;;8254089;28;20057;-83
2022/12/04 21:42:31;;;;;;;29.38;15.02;;;;;;;;;;8265436;28;20128;-85
2022/12/04 21:46:34;;;;;;;27.00;12.57;;;;;;;;;;8265987;28;20050;-87
2022/12/04 21:50:38;;;;;;;13.60;7.03;;;;;;;;;;8264749;28;20145;-83
2022/12/04 21:54:41;;;;;;;26.08;12.13;;;;;;;;;;8251453;28;20137;-89
2022/12/04 21:58:44;;;;;;;31.35;14.73;;;;;;;;;;8264566;28;20450;-88
2022/12/04 22:02:47;;;;;;;21.67;10.23;;;;;;;;;;8265062;28;20080;-90
2022/12/04 22:06:51;;;;;;;24.02;10.98;;;;;;;;;;8264535;28;20552;-86
2022/12/04 22:10:54;;;;;;;21.10;11.15;;;;;;;;;;8263536;28;20509;-86
2022/12/04 22:14:57;;;;;;;13.25;6.93;;;;;;;;;;8264046;28;20403;-87
2022/12/04 22:19:00;;;;;;;43.40;16.92;;;;;;;;;;8263866;28;20123;-85
2022/12/04 22:23:04;;;;;;;28.85;13.48;;;;;;;;;;8263641;28;20054;-87
2022/12/04 22:27:13;;;;;;;15.70;7.97;;;;;;;;;;8263097;28;20450;-86
2022/12/04 22:31:17;;;;;;;44.17;20.88;;;;;;;;;;8259825;28;20062;-86
2022/12/04 22:35:20;;;;;;;27.52;13.18;;;;;;;;;;8263435;28;20046;-85
2022/12/04 22:39:24;;;;;;;28.42;13.98;;;;;;;;;;8257641;28;20117;-85
2022/12/04 22:43:28;;;;;;;12.77;6.80;;;;;;;;;;8250496;28;20125;-86
2022/12/04 22:47:31;;;;;;;22.42;10.35;;;;;;;;;;8262263;28;20489;-86
2022/12/04 22:51:34;;;;;;;29.80;12.93;;;;;;;;;;8262855;28;20042;-89
2022/12/04 22:55:38;;;;;;;26.10;11.73;;;;;;;;;;8263165;28;20542;-84
2022/12/04 22:59:41;;;;;;;24.10;9.68;;;;;;;;;;8256577;28;20073;-84
2022/12/04 23:03:44;;;;;;;21.92;11.27;;;;;;;;;;8266357;28;20380;-84
2022/12/04 23:07:47;;;;;;;26.48;12.32;;;;;;;;;;8268884;28;20046;-82
2022/12/04 23:11:53;;;;;;;20.90;10.30;;;;;;;;;;8268918;28;20414;-86
2022/12/04 23:15:55;;;;;;;25.95;12.20;;;;;;;;;;8268766;28;20039;-86
2022/12/04 23:19:58;;;;;;;19.90;9.38;;;;;;;;;;8268392;28;20042;-88
2022/12/04 23:24:01;;;;;;;24.67;11.30;;;;;;;;;;8268409;28;20088;-84
2022/12/04 23:28:05;;;;;;;28.35;13.02;;;;;;;;;;8267478;28;20069;-86
2022/12/04 23:32:08;;;;;;;27.08;12.93;;;;;;;;;;8267644;28;20050;-87
2022/12/04 23:36:12;;;;;;;28.88;12.35;;;;;;;;;;8266620;28;20062;-87
2022/12/04 23:40:15;;;;;;;26.48;12.93;;;;;;;;;;8266309;28;20104;-86
2022/12/04 23:44:19;;;;;;;23.45;12.10;;;;;;;;;;8263603;28;20138;-88
2022/12/04 23:48:21;;;;;;;31.50;13.52;;;;;;;;;;8264993;28;20042;-88
2022/12/04 23:52:24;;;;;;;16.42;7.50;;;;;;;;;;8265674;28;20508;-88
2022/12/04 23:56:28;;;;;;;24.52;11.20;;;;;;;;;;8264312;28;20050;-86
